Fuchinoue, Japan

12:18 PM JST on February 28, 2017 (GMT +0900)
Raizan Golf Club | | Change Station

Elev 529 ft 33.52 °N, 130.26 °E | Updated 1 minute ago

Clear
Clear
52.5 °F
Feels Like 52.5 °F
N
3.0
Wind Variable Wind from WNW
Gusts 7.0 mph

Today
High -- | Low -- °F
--% Chance of Precip.
Yesterday
High -- | Low -- °F
Precip. -- in
Pressure 30.27 in
Visibility 6.2 miles
Clouds Few 3000 ft
Dew Point 32 °F
Humidity 45%
Rainfall 0.00 in
Snow Depth Not available.
6:49 AM 6:15 PM
Waxing Crescent, 3% visible
METAR RJFF 280300Z 03007KT 350V100 9999 FEW030 SCT/// 13/M04 Q1025 RMK 1CU030 A3027
Pressure 30.27 in
Visibility 6.2 miles
Clouds Few 3000 ft
Dew Point 32 °F
Humidity 45%
Rainfall 0.00 in
Snow Depth Not available.
6:49 AM 6:15 PM
Waxing Crescent, 3% visible
METAR RJFF 280300Z 03007KT 350V100 9999 FEW030 SCT/// 13/M04 Q1025 RMK 1CU030 A3027

Get Your Daily Forecast Email!

Thanks for signing up!

Be on the lookout for a verification email in your inbox.

You'll start receiving the daily forecast at 8 AM.

×

10-Day Weather Forecast

No radar image for this location.
×

Almanac

Astronomy

Feb. 28, 2017 Rise Set
Actual Time
Civil Twilight
Nautical Twilight
Astronomical Twilight
Moon
Length of Visible Light
Length of Day
Tomorrow will be .
, % of the Moon is Illuminated

Today's Extremes

Country Highs Country Lows

Community

WunderPhotos

Upload Photos

1,962,540 photos uploaded!

WunderBlog® & News

Nearby

Air Quality

  Air Quality AQ Index Pollutant
Not available.

Snow Depth

Station Depth Elevation

Earthquake Activity

City Distance Mag. Time & Date
Minimum magnitude displayed is 2.5.

Coastal Water Temperatures

Place Temperature

Stations

Nearby Weather Stations

Station Location Temp. Windchill Dew Point Humidity Wind Precip. Elev Updated Type